createdAt,value
2023-03-16T00:00:32.841Z,17.90
2023-03-16T00:01:35.572Z,17.90
2023-03-16T00:02:37.893Z,17.90
2023-03-16T00:03:40.438Z,17.90
2023-03-16T00:04:47.436Z,17.90
2023-03-16T00:05:52.794Z,17.90
2023-03-16T00:06:57.542Z,17.80
2023-03-16T00:08:00.074Z,17.90
2023-03-16T00:09:03.579Z,17.80
2023-03-16T00:10:06.996Z,17.80
2023-03-16T00:11:09.916Z,17.80
2023-03-16T00:12:16.926Z,17.80
2023-03-16T00:13:23.952Z,17.80
2023-03-16T00:14:26.912Z,17.80
2023-03-16T00:15:30.204Z,17.80
2023-03-16T00:16:32.733Z,17.80
2023-03-16T00:17:35.069Z,17.80
2023-03-16T00:18:38.862Z,17.80
2023-03-16T00:19:46.873Z,17.80
2023-03-16T00:20:53.676Z,17.80
2023-03-16T00:21:56.049Z,17.80
2023-03-16T00:22:58.745Z,17.70
2023-03-16T00:24:04.186Z,17.70
2023-03-16T00:25:07.006Z,17.70
2023-03-16T00:26:10.419Z,17.70
2023-03-16T00:27:14.861Z,17.70
2023-03-16T00:28:17.249Z,17.70
2023-03-16T00:29:19.791Z,17.70
2023-03-16T00:30:22.884Z,17.70
2023-03-16T00:31:25.338Z,17.70
2023-03-16T00:32:31.818Z,17.70
2023-03-16T00:33:37.897Z,17.70
2023-03-16T00:34:41.124Z,17.70
2023-03-16T00:35:50.412Z,17.70
2023-03-16T00:36:52.819Z,17.70
2023-03-16T00:37:57.338Z,17.70
2023-03-16T00:39:00.601Z,17.70
2023-03-16T00:40:04.102Z,17.70
2023-03-16T00:41:08.129Z,17.70
2023-03-16T00:42:12.662Z,17.70
2023-03-16T00:43:18.739Z,17.70
2023-03-16T00:44:21.630Z,17.70
2023-03-16T00:45:25.213Z,17.70
2023-03-16T00:46:30.533Z,17.60
2023-03-16T00:47:36.658Z,17.60
2023-03-16T00:48:42.429Z,17.60
2023-03-16T00:49:45.540Z,17.60
2023-03-16T00:50:47.990Z,17.60
2023-03-16T00:51:50.867Z,17.60
2023-03-16T00:52:55.413Z,17.60
2023-03-16T00:54:05.340Z,17.60
2023-03-16T00:55:11.098Z,17.60
2023-03-16T00:56:14.083Z,17.60
2023-03-16T00:57:18.858Z,17.60
2023-03-16T00:58:25.820Z,17.60
2023-03-16T00:59:30.430Z,17.60
2023-03-16T01:00:33.955Z,17.60
2023-03-16T01:01:38.852Z,17.60
2023-03-16T01:02:42.062Z,17.60
2023-03-16T01:03:44.920Z,17.60
2023-03-16T01:04:47.234Z,17.50
2023-03-16T01:05:49.611Z,17.50
2023-03-16T01:06:51.963Z,17.50
2023-03-16T01:07:54.357Z,17.50
2023-03-16T01:08:58.242Z,17.50
2023-03-16T01:10:00.545Z,17.50
2023-03-16T01:11:05.359Z,17.50
2023-03-16T01:12:11.716Z,17.50
2023-03-16T01:13:14.136Z,17.50
2023-03-16T01:14:16.569Z,17.50
2023-03-16T01:15:18.949Z,17.50
2023-03-16T01:16:24.886Z,17.50
2023-03-16T01:17:28.419Z,17.50
2023-03-16T01:18:34.131Z,17.50
2023-03-16T01:19:37.983Z,17.50
2023-03-16T01:20:40.598Z,17.40
2023-03-16T01:21:42.923Z,17.40
2023-03-16T01:22:46.370Z,17.40
2023-03-16T01:23:48.758Z,17.40
2023-03-16T01:24:51.172Z,17.40
2023-03-16T01:25:54.122Z,17.40
2023-03-16T01:26:57.125Z,17.40
2023-03-16T01:27:59.544Z,17.40
2023-03-16T01:29:02.372Z,17.20
2023-03-16T01:30:06.078Z,16.50
2023-03-16T01:31:10.374Z,16.10
2023-03-16T01:32:13.317Z,16.10
2023-03-16T01:33:16.278Z,16.30
2023-03-16T01:34:18.903Z,16.50
2023-03-16T01:35:21.826Z,16.60
2023-03-16T01:36:25.669Z,16.70
2023-03-16T01:37:31.960Z,16.80
2023-03-16T01:38:54.652Z,16.90
2023-03-16T01:39:58.463Z,17.00
2023-03-16T01:41:02.082Z,17.00
2023-03-16T01:42:04.579Z,17.20
2023-03-16T01:43:07.848Z,17.20
2023-03-16T01:44:18.908Z,17.20
2023-03-16T01:45:55.498Z,17.20
2023-03-16T01:46:58.911Z,16.90
2023-03-16T01:48:01.322Z,16.10
2023-03-16T01:49:17.563Z,15.70
2023-03-16T01:50:20.047Z,15.70
2023-03-16T01:51:32.317Z,15.70
2023-03-16T01:52:37.710Z,15.70
2023-03-16T01:53:44.603Z,15.60
2023-03-16T01:54:48.179Z,15.60
2023-03-16T01:55:51.529Z,15.60
2023-03-16T01:57:07.692Z,15.60
2023-03-16T01:58:11.502Z,15.60
2023-03-16T01:59:17.254Z,15.60
2023-03-16T02:00:23.855Z,15.60
2023-03-16T02:01:36.536Z,15.60
2023-03-16T02:02:43.463Z,15.50
2023-03-16T02:03:48.424Z,15.40
2023-03-16T02:05:52.774Z,15.30
2023-03-16T02:06:58.091Z,15.20
2023-03-16T02:08:02.375Z,15.00
2023-03-16T02:11:43.514Z,14.80
2023-03-16T02:12:48.873Z,14.60
2023-03-16T02:13:52.615Z,14.60
2023-03-16T02:14:55.684Z,14.60
2023-03-16T02:15:58.398Z,14.40
2023-03-16T02:17:00.910Z,14.20
2023-03-16T02:18:04.771Z,14.00
2023-03-16T02:19:14.227Z,13.80
2023-03-16T02:20:37.649Z,13.60
2023-03-16T02:21:55.895Z,13.50
2023-03-16T02:22:58.733Z,13.60
2023-03-16T02:24:03.810Z,13.90
2023-03-16T02:25:06.987Z,14.20
2023-03-16T02:26:39.082Z,14.30
2023-03-16T02:27:53.150Z,14.50
2023-03-16T02:28:58.535Z,14.60
2023-03-16T02:30:11.711Z,14.70
2023-03-16T02:31:23.446Z,14.80
2023-03-16T02:32:29.403Z,14.90
2023-03-16T02:33:33.815Z,15.00
2023-03-16T02:34:36.386Z,15.00
2023-03-16T02:35:38.792Z,15.10
2023-03-16T02:36:43.635Z,15.10
2023-03-16T02:37:45.982Z,15.10
2023-03-16T02:38:48.414Z,15.20
2023-03-16T02:39:53.674Z,15.20
2023-03-16T02:41:09.508Z,15.20
2023-03-16T02:42:15.387Z,15.20
2023-03-16T02:43:22.265Z,15.30
2023-03-16T02:44:40.696Z,15.30
2023-03-16T02:45:51.171Z,15.30
2023-03-16T02:46:57.641Z,15.10
2023-03-16T02:48:05.447Z,14.70
2023-03-16T02:49:16.310Z,14.40
2023-03-16T02:50:19.263Z,14.10
2023-03-16T02:51:21.589Z,13.80
2023-03-16T02:52:24.504Z,13.70
2023-03-16T02:53:27.133Z,13.80
2023-03-16T02:54:31.081Z,13.90
2023-03-16T02:55:33.609Z,13.90
2023-03-16T02:56:36.068Z,14.00
2023-03-16T02:57:38.344Z,14.10
2023-03-16T02:58:46.094Z,14.10
2023-03-16T02:59:52.739Z,14.10
2023-03-16T03:00:55.452Z,14.10
2023-03-16T03:01:58.044Z,14.10
2023-03-16T03:03:00.972Z,14.10
2023-03-16T03:04:04.659Z,14.10
2023-03-16T03:05:08.021Z,14.10
2023-03-16T03:06:11.038Z,14.20
2023-03-16T03:07:14.425Z,14.10
2023-03-16T03:08:32.771Z,13.90
2023-03-16T03:09:36.246Z,14.20
2023-03-16T03:10:38.782Z,14.60
2023-03-16T03:11:41.561Z,15.00
2023-03-16T03:12:44.279Z,15.30
2023-03-16T03:13:47.579Z,15.70
2023-03-16T03:14:54.219Z,15.90
2023-03-16T03:15:57.578Z,16.20
2023-03-16T03:17:03.952Z,16.40
2023-03-16T03:18:07.383Z,16.60
2023-03-16T03:19:09.982Z,16.80
2023-03-16T03:20:17.651Z,16.90
2023-03-16T03:21:20.600Z,17.10
2023-03-16T03:22:22.942Z,17.20
2023-03-16T03:23:25.439Z,17.30
2023-03-16T03:24:28.118Z,17.40
2023-03-16T03:25:30.582Z,17.50
2023-03-16T03:26:32.940Z,17.60
2023-03-16T03:27:36.298Z,17.60
2023-03-16T03:28:42.194Z,17.70
2023-03-16T03:29:45.484Z,17.80
2023-03-16T03:30:47.834Z,17.80
2023-03-16T03:31:50.283Z,17.90
2023-03-16T03:32:52.782Z,17.90
2023-03-16T03:33:56.599Z,18.00
2023-03-16T03:34:59.180Z,18.00
2023-03-16T03:36:02.058Z,18.00
2023-03-16T03:37:10.066Z,18.10
2023-03-16T03:38:12.730Z,18.10
2023-03-16T03:39:19.139Z,18.10
2023-03-16T03:40:24.647Z,18.20
2023-03-16T03:41:33.825Z,18.20
2023-03-16T03:42:40.455Z,18.20
2023-03-16T03:43:44.418Z,18.30
2023-03-16T03:44:52.771Z,18.30
2023-03-16T03:46:04.529Z,18.30
2023-03-16T03:47:09.571Z,18.30
2023-03-16T03:48:12.148Z,18.30
2023-03-16T03:49:15.288Z,18.40
2023-03-16T03:50:18.167Z,18.40
2023-03-16T03:51:41.240Z,18.40
2023-03-16T03:52:50.390Z,17.70
2023-03-16T03:53:52.845Z,17.00
2023-03-16T03:55:02.881Z,16.50
2023-03-16T03:56:06.160Z,16.00
2023-03-16T03:57:08.629Z,16.10
2023-03-16T03:58:12.060Z,16.40
2023-03-16T03:59:14.632Z,16.80
2023-03-16T04:00:49.449Z,17.10
2023-03-16T04:01:53.766Z,17.40
2023-03-16T04:02:58.216Z,17.60
2023-03-16T04:04:07.635Z,17.70
2023-03-16T04:05:10.707Z,17.90
2023-03-16T04:06:13.136Z,18.00
2023-03-16T04:07:15.528Z,18.00
2023-03-16T04:08:19.707Z,18.10
2023-03-16T04:09:22.093Z,18.10
2023-03-16T04:10:26.698Z,18.20
2023-03-16T04:11:29.439Z,18.20
2023-03-16T04:12:31.896Z,18.30
2023-03-16T04:13:34.284Z,18.30
2023-03-16T04:14:36.732Z,18.30
2023-03-16T04:15:46.780Z,18.40
2023-03-16T04:16:54.725Z,18.40
2023-03-16T04:17:57.437Z,18.50
2023-03-16T04:19:01.655Z,18.50
2023-03-16T04:20:11.398Z,18.50
2023-03-16T04:21:17.852Z,18.50
2023-03-16T04:22:23.517Z,18.50
2023-03-16T04:23:26.864Z,17.70
2023-03-16T04:24:30.100Z,17.20
2023-03-16T04:25:32.517Z,17.40
2023-03-16T04:26:35.044Z,17.60
2023-03-16T04:27:39.447Z,17.90
2023-03-16T04:28:43.317Z,18.00
2023-03-16T04:29:48.360Z,18.10
2023-03-16T04:30:50.719Z,18.20
2023-03-16T04:31:58.557Z,18.30
2023-03-16T04:33:03.217Z,18.30
2023-03-16T04:34:08.548Z,18.40
2023-03-16T04:35:11.162Z,18.50
2023-03-16T04:36:24.414Z,18.50
2023-03-16T04:37:27.397Z,18.50
2023-03-16T04:38:33.631Z,18.60
2023-03-16T04:39:36.894Z,18.60
2023-03-16T04:40:39.301Z,18.60
2023-03-16T04:41:48.136Z,18.60
2023-03-16T04:42:56.032Z,18.60
2023-03-16T04:43:59.073Z,18.70
2023-03-16T04:45:01.729Z,18.70
2023-03-16T04:46:05.778Z,18.70
2023-03-16T04:47:09.394Z,18.70
2023-03-16T04:48:14.789Z,18.70
2023-03-16T04:49:17.074Z,18.80
2023-03-16T04:50:20.907Z,18.80
2023-03-16T04:51:28.074Z,18.80
2023-03-16T04:52:51.843Z,18.80
2023-03-16T04:53:54.975Z,18.80
2023-03-16T04:55:05.897Z,18.80
2023-03-16T04:56:09.129Z,18.90
2023-03-16T04:57:12.356Z,18.90
2023-03-16T04:58:19.359Z,18.90
2023-03-16T04:59:25.603Z,18.90
2023-03-16T05:00:36.119Z,18.90
2023-03-16T05:01:43.511Z,18.90
2023-03-16T05:02:48.030Z,18.90
2023-03-16T05:03:50.543Z,18.90
2023-03-16T05:04:55.155Z,19.00
2023-03-16T05:05:57.607Z,19.00
2023-03-16T05:07:01.822Z,19.00
2023-03-16T05:08:10.745Z,18.90
2023-03-16T05:09:14.664Z,18.40
2023-03-16T05:10:21.883Z,18.40
2023-03-16T05:11:24.277Z,18.60
2023-03-16T05:12:32.337Z,18.70
2023-03-16T05:13:39.246Z,18.70
2023-03-16T05:14:41.548Z,18.80
2023-03-16T05:16:07.273Z,18.90
2023-03-16T05:17:14.735Z,18.90
2023-03-16T05:18:17.763Z,18.90
2023-03-16T05:19:20.218Z,19.00
2023-03-16T05:20:23.817Z,19.00
2023-03-16T05:21:31.982Z,19.00
2023-03-16T05:22:40.864Z,19.10
2023-03-16T05:23:56.812Z,19.10
2023-03-16T05:25:03.253Z,19.10
2023-03-16T05:26:05.885Z,19.10
2023-03-16T05:27:11.367Z,19.10
2023-03-16T05:28:15.004Z,19.20
2023-03-16T05:29:38.665Z,19.20
2023-03-16T05:30:42.294Z,19.20
2023-03-16T05:31:48.573Z,19.20
2023-03-16T05:32:54.774Z,19.20
2023-03-16T05:33:57.412Z,19.30
2023-03-16T05:34:59.877Z,19.30
2023-03-16T05:36:03.100Z,19.30
2023-03-16T05:37:06.243Z,19.30
2023-03-16T05:38:09.977Z,19.30
2023-03-16T05:39:15.369Z,19.30
2023-03-16T05:40:23.017Z,19.30
2023-03-16T05:41:34.146Z,19.30
2023-03-16T05:42:41.530Z,19.30
2023-03-16T05:43:47.365Z,19.30
2023-03-16T05:44:51.365Z,19.40
2023-03-16T05:45:57.357Z,19.40
2023-03-16T05:47:00.539Z,19.40
2023-03-16T05:48:05.754Z,19.40
2023-03-16T05:49:12.899Z,19.40
2023-03-16T05:50:16.983Z,19.40
2023-03-16T05:51:20.133Z,19.40
2023-03-16T05:52:25.415Z,19.40
2023-03-16T05:53:29.375Z,19.40
2023-03-16T05:54:38.311Z,19.40
2023-03-16T05:55:41.308Z,19.40
2023-03-16T05:56:46.593Z,19.40
2023-03-16T05:57:51.005Z,19.40
2023-03-16T05:58:55.359Z,19.40
2023-03-16T05:59:58.198Z,19.40
2023-03-16T06:01:05.400Z,19.50
2023-03-16T06:02:10.762Z,19.50
2023-03-16T06:03:13.226Z,19.50
2023-03-16T06:04:15.932Z,19.50
2023-03-16T06:05:19.871Z,19.50
2023-03-16T06:06:23.107Z,19.50
2023-03-16T06:07:41.606Z,19.50
2023-03-16T06:08:44.565Z,19.50
2023-03-16T06:09:48.464Z,19.60
2023-03-16T06:10:52.377Z,19.50
2023-03-16T06:11:55.996Z,19.50
2023-03-16T06:12:59.925Z,19.50
2023-03-16T06:14:02.521Z,19.50
2023-03-16T06:15:08.876Z,19.60
2023-03-16T06:16:13.819Z,19.60
2023-03-16T06:17:16.444Z,19.60
2023-03-16T06:18:18.754Z,19.60
2023-03-16T06:19:21.839Z,19.60
2023-03-16T06:20:29.333Z,19.60
2023-03-16T06:21:32.212Z,19.60
2023-03-16T06:22:42.030Z,19.60
2023-03-16T06:23:44.432Z,19.60
2023-03-16T06:24:47.952Z,19.60
2023-03-16T06:25:51.292Z,19.60
2023-03-16T06:26:56.806Z,19.60
2023-03-16T06:28:05.282Z,19.70
2023-03-16T06:29:07.827Z,19.70
2023-03-16T06:30:14.195Z,19.70
2023-03-16T06:31:16.935Z,19.70
2023-03-16T06:32:21.951Z,19.70
2023-03-16T06:33:25.356Z,19.70
2023-03-16T06:34:28.304Z,19.70
2023-03-16T06:35:32.578Z,19.70
2023-03-16T06:36:48.245Z,19.70
2023-03-16T06:37:50.607Z,19.70
2023-03-16T06:39:07.346Z,19.70
2023-03-16T06:40:13.873Z,19.70
2023-03-16T06:41:16.312Z,19.70
2023-03-16T06:42:21.438Z,19.70
2023-03-16T06:43:23.846Z,19.70
2023-03-16T06:44:26.934Z,19.70
2023-03-16T06:45:38.545Z,19.80
2023-03-16T06:46:41.609Z,19.80
2023-03-16T06:47:44.463Z,19.80
2023-03-16T06:48:47.457Z,19.80
2023-03-16T06:49:51.670Z,19.80
2023-03-16T06:50:56.745Z,19.80
2023-03-16T06:52:03.309Z,19.80
2023-03-16T06:53:06.821Z,19.80
2023-03-16T06:54:11.797Z,19.80
2023-03-16T06:55:15.669Z,19.80
2023-03-16T06:56:21.529Z,19.80
2023-03-16T06:57:25.667Z,19.80
2023-03-16T06:58:28.006Z,19.80
2023-03-16T06:59:30.494Z,19.80
2023-03-16T07:00:34.131Z,19.80
2023-03-16T07:01:36.806Z,19.80
2023-03-16T07:02:40.470Z,19.80
2023-03-16T07:03:44.135Z,19.80
2023-03-16T07:04:58.245Z,19.80
2023-03-16T07:06:00.616Z,19.80
2023-03-16T07:07:03.022Z,19.80
2023-03-16T07:08:06.090Z,19.80
2023-03-16T07:09:08.893Z,19.80
2023-03-16T07:10:13.554Z,19.80
2023-03-16T07:11:15.934Z,19.80
2023-03-16T07:12:18.546Z,19.80
2023-03-16T07:13:21.591Z,19.80
2023-03-16T07:14:26.287Z,19.90
2023-03-16T07:15:31.247Z,19.90
2023-03-16T07:16:34.569Z,19.90
2023-03-16T07:17:40.249Z,19.90
2023-03-16T07:18:44.583Z,19.90
2023-03-16T07:19:49.517Z,19.90
2023-03-16T07:20:54.153Z,19.90
2023-03-16T07:21:58.779Z,19.90
2023-03-16T07:23:02.577Z,19.90
2023-03-16T07:24:05.980Z,19.90
2023-03-16T07:25:12.400Z,19.90
2023-03-16T07:26:19.065Z,19.90
2023-03-16T07:27:29.754Z,19.90
2023-03-16T07:28:34.107Z,19.90
2023-03-16T07:29:37.812Z,19.90
2023-03-16T07:30:41.296Z,19.90
2023-03-16T07:31:45.473Z,19.90
2023-03-16T07:32:53.449Z,19.90
2023-03-16T07:33:58.172Z,20.00
2023-03-16T07:35:11.559Z,20.00
2023-03-16T07:36:14.329Z,20.00
2023-03-16T07:37:25.821Z,20.00
2023-03-16T07:38:33.526Z,20.00
2023-03-16T07:39:36.766Z,20.00
2023-03-16T07:40:46.284Z,20.00
2023-03-16T07:41:55.012Z,20.00
2023-03-16T07:43:13.148Z,20.00
2023-03-16T07:44:24.198Z,20.00
2023-03-16T07:45:28.699Z,20.00
2023-03-16T07:46:32.641Z,20.00
2023-03-16T07:47:35.804Z,20.00
2023-03-16T07:48:51.005Z,20.00
2023-03-16T07:49:53.312Z,20.00
2023-03-16T07:50:55.609Z,20.00
2023-03-16T07:51:58.807Z,20.00
2023-03-16T07:53:09.197Z,20.00
2023-03-16T07:54:14.353Z,20.00
2023-03-16T07:55:16.817Z,20.00
2023-03-16T07:56:21.417Z,20.00
2023-03-16T07:57:30.612Z,20.00
2023-03-16T07:58:32.980Z,20.00
2023-03-16T07:59:35.546Z,20.10
2023-03-16T08:00:39.424Z,20.10
2023-03-16T08:01:41.812Z,20.10
2023-03-16T08:02:44.589Z,20.10
2023-03-16T08:03:48.891Z,20.10
2023-03-16T08:04:51.580Z,20.10
2023-03-16T08:05:55.371Z,20.10
2023-03-16T08:07:00.190Z,20.10
2023-03-16T08:08:09.736Z,20.10
2023-03-16T08:09:13.412Z,20.10
2023-03-16T08:10:17.976Z,20.10
2023-03-16T08:11:41.640Z,20.10
2023-03-16T08:12:44.107Z,20.10
2023-03-16T08:13:47.231Z,20.10
2023-03-16T08:14:50.203Z,20.10
2023-03-16T08:16:01.868Z,20.10
2023-03-16T08:17:14.008Z,20.10
2023-03-16T08:18:17.093Z,20.10
2023-03-16T08:19:20.312Z,20.10
2023-03-16T08:20:23.981Z,20.10
2023-03-16T08:21:26.384Z,20.10
2023-03-16T08:22:30.001Z,20.10
2023-03-16T08:23:33.612Z,20.10
2023-03-16T08:24:36.815Z,20.10
2023-03-16T08:25:41.109Z,20.20
2023-03-16T08:26:48.096Z,20.20
2023-03-16T08:27:50.919Z,20.20
2023-03-16T08:28:53.766Z,20.10
2023-03-16T08:29:56.678Z,20.20
2023-03-16T08:31:02.073Z,20.10
2023-03-16T08:32:37.573Z,20.20
2023-03-16T08:33:43.924Z,20.20
2023-03-16T08:34:47.665Z,20.20
2023-03-16T08:35:50.680Z,20.20
2023-03-16T08:36:54.322Z,20.20
2023-03-16T08:37:57.675Z,20.20
2023-03-16T08:39:07.067Z,20.20
2023-03-16T08:40:18.194Z,20.20
2023-03-16T08:41:22.310Z,20.20
2023-03-16T08:42:25.869Z,20.20
2023-03-16T08:43:33.693Z,20.20
2023-03-16T08:44:37.035Z,20.00
2023-03-16T08:45:39.357Z,19.90
2023-03-16T08:46:42.366Z,19.70
2023-03-16T08:47:44.846Z,19.70
2023-03-16T08:48:49.144Z,19.50
2023-03-16T08:49:52.249Z,19.40
2023-03-16T08:50:55.277Z,19.30
2023-03-16T08:51:57.581Z,19.10
2023-03-16T08:53:00.792Z,19.10
2023-03-16T08:54:03.246Z,19.00
2023-03-16T08:55:07.081Z,19.00
2023-03-16T08:56:12.309Z,19.10
2023-03-16T08:57:15.426Z,19.10
2023-03-16T08:58:17.829Z,19.10
2023-03-16T08:59:29.674Z,19.20
2023-03-16T09:00:33.167Z,19.20
2023-03-16T09:01:35.882Z,19.20
2023-03-16T09:02:40.511Z,19.20
2023-03-16T09:03:45.634Z,19.30
2023-03-16T09:04:48.145Z,19.30
2023-03-16T09:05:50.489Z,19.40
2023-03-16T09:07:07.929Z,19.50
2023-03-16T09:08:10.943Z,19.50
2023-03-16T09:09:13.898Z,19.50
2023-03-16T09:10:18.850Z,19.60
2023-03-16T09:11:22.150Z,19.50
2023-03-16T09:12:25.035Z,19.50
2023-03-16T09:13:28.771Z,19.60
2023-03-16T09:14:31.316Z,19.60
2023-03-16T09:15:34.082Z,19.50
2023-03-16T09:16:36.431Z,19.50
2023-03-16T09:17:41.510Z,19.50
2023-03-16T09:18:44.123Z,19.50
2023-03-16T09:19:51.961Z,19.40
2023-03-16T09:21:01.332Z,19.40
2023-03-16T09:22:04.025Z,19.40
2023-03-16T09:23:06.468Z,19.40
2023-03-16T09:24:08.987Z,19.40
2023-03-16T09:25:11.521Z,19.40
2023-03-16T09:26:17.141Z,19.40
2023-03-16T09:27:20.650Z,19.50
2023-03-16T09:28:23.087Z,19.50
2023-03-16T09:29:25.715Z,19.50
2023-03-16T09:30:28.557Z,19.50
2023-03-16T09:31:31.109Z,19.40
2023-03-16T09:32:34.276Z,19.40
2023-03-16T09:33:36.934Z,19.50
2023-03-16T09:34:39.640Z,19.50
2023-03-16T09:35:44.879Z,19.50
2023-03-16T09:36:47.313Z,19.40
2023-03-16T09:38:05.089Z,19.50
2023-03-16T09:39:08.748Z,19.50
2023-03-16T09:40:24.851Z,19.60
2023-03-16T09:41:44.689Z,19.60
2023-03-16T09:43:10.686Z,19.60
2023-03-16T09:44:33.596Z,19.60
2023-03-16T09:46:03.113Z,19.60
2023-03-16T09:47:11.187Z,19.70
2023-03-16T09:48:17.212Z,19.60
2023-03-16T09:49:21.989Z,19.60
2023-03-16T09:50:38.218Z,19.50
2023-03-16T09:51:52.241Z,19.40
2023-03-16T09:53:05.948Z,19.40
2023-03-16T09:54:24.702Z,19.30
2023-03-16T09:55:38.949Z,19.30
2023-03-16T09:56:43.544Z,19.20
2023-03-16T09:57:47.483Z,19.20
2023-03-16T09:58:50.085Z,19.30
2023-03-16T09:59:53.167Z,19.30
2023-03-16T10:01:12.118Z,19.20
2023-03-16T10:02:54.083Z,19.30
2023-03-16T10:04:13.184Z,19.40
2023-03-16T10:05:20.590Z,19.50
2023-03-16T10:06:23.340Z,19.50
2023-03-16T10:07:34.335Z,19.60
2023-03-16T10:08:43.416Z,19.60
2023-03-16T10:09:49.716Z,19.70
2023-03-16T10:11:13.553Z,19.60
2023-03-16T10:12:16.329Z,19.60
2023-03-16T10:13:36.330Z,19.60
2023-03-16T10:15:04.716Z,19.60
2023-03-16T10:16:33.888Z,19.70
2023-03-16T10:17:43.724Z,19.70
2023-03-16T10:18:49.352Z,19.80
2023-03-16T10:20:18.120Z,19.80
2023-03-16T10:21:21.326Z,19.80
2023-03-16T10:22:31.178Z,19.80
2023-03-16T10:23:35.578Z,19.90
2023-03-16T10:24:59.376Z,19.90
2023-03-16T10:26:19.303Z,19.80
2023-03-16T10:27:32.346Z,19.80
2023-03-16T10:28:34.802Z,19.90
2023-03-16T10:29:37.176Z,19.90
2023-03-16T10:30:41.829Z,19.90
2023-03-16T10:31:45.778Z,20.00
2023-03-16T10:32:49.507Z,19.90
2023-03-16T10:33:58.445Z,19.90
2023-03-16T10:35:21.022Z,19.90
2023-03-16T10:36:34.521Z,19.90
2023-03-16T10:37:38.655Z,20.00
2023-03-16T10:38:50.552Z,19.90
2023-03-16T10:39:53.102Z,20.10
2023-03-16T10:40:57.844Z,20.00
2023-03-16T10:42:00.265Z,20.00
2023-03-16T10:43:08.539Z,20.00
2023-03-16T10:44:23.521Z,20.10
2023-03-16T10:45:29.699Z,20.00
2023-03-16T10:46:41.080Z,20.00
2023-03-16T10:47:43.547Z,20.00
2023-03-16T10:49:00.711Z,20.10
2023-03-16T10:50:16.697Z,20.00
2023-03-16T10:51:25.375Z,20.00
2023-03-16T10:52:39.973Z,20.00
2023-03-16T10:53:44.657Z,19.90
2023-03-16T10:54:51.335Z,20.00
2023-03-16T10:56:05.807Z,20.00
2023-03-16T10:57:35.665Z,20.00
2023-03-16T10:58:42.501Z,19.90
2023-03-16T10:59:49.798Z,19.90
2023-03-16T11:00:53.591Z,19.80
2023-03-16T11:01:57.077Z,19.80
2023-03-16T11:03:01.235Z,19.80
2023-03-16T11:04:15.646Z,19.80
2023-03-16T11:05:18.019Z,19.70
2023-03-16T11:06:30.534Z,19.70
2023-03-16T11:07:36.125Z,19.70
2023-03-16T11:08:39.934Z,19.70
2023-03-16T11:09:43.142Z,19.80
2023-03-16T11:10:56.253Z,19.80
2023-03-16T11:11:59.797Z,19.70
2023-03-16T11:13:14.616Z,19.80
2023-03-16T11:14:21.205Z,19.80
2023-03-16T11:15:26.198Z,19.80
2023-03-16T11:16:43.426Z,19.90
2023-03-16T11:17:51.352Z,19.80
2023-03-16T11:19:21.502Z,19.70
2023-03-16T11:20:28.545Z,19.60
2023-03-16T11:21:55.081Z,19.50
2023-03-16T11:23:00.507Z,19.50
2023-03-16T11:24:04.518Z,19.50
2023-03-16T11:25:17.123Z,19.50
2023-03-16T11:26:27.746Z,19.50
2023-03-16T11:27:39.519Z,19.50
2023-03-16T11:28:50.420Z,19.40
2023-03-16T11:30:05.333Z,19.40
2023-03-16T11:31:20.017Z,19.30
2023-03-16T11:32:29.772Z,19.30
2023-03-16T11:33:34.836Z,19.30
2023-03-16T11:34:37.201Z,19.30
2023-03-16T11:35:44.164Z,19.30
2023-03-16T11:37:36.707Z,19.20
2023-03-16T11:38:48.573Z,19.20
2023-03-16T11:40:17.341Z,19.10
2023-03-16T11:41:45.750Z,19.10
2023-03-16T11:43:05.873Z,19.10
2023-03-16T11:44:18.368Z,19.20
2023-03-16T11:45:37.130Z,19.20
2023-03-16T11:46:48.621Z,19.30
2023-03-16T11:48:28.232Z,19.30
2023-03-16T11:49:45.660Z,19.20
2023-03-16T11:51:04.919Z,19.20
2023-03-16T11:52:17.242Z,19.20
2023-03-16T11:53:32.479Z,19.20
2023-03-16T11:54:53.981Z,19.30
2023-03-16T11:55:59.685Z,19.30
2023-03-16T11:57:30.724Z,19.30
2023-03-16T11:59:06.669Z,19.30
2023-03-16T12:00:27.459Z,19.30
2023-03-16T12:02:00.052Z,19.40
2023-03-16T12:03:39.790Z,19.30
2023-03-16T12:05:19.799Z,19.30
2023-03-16T12:06:27.440Z,19.30
2023-03-16T12:07:55.518Z,19.30
2023-03-16T12:09:16.361Z,19.30
2023-03-16T12:10:44.243Z,19.30
2023-03-16T12:12:05.791Z,19.30
2023-03-16T12:13:38.555Z,19.30
2023-03-16T12:14:51.118Z,19.30
2023-03-16T12:16:05.777Z,19.30
2023-03-16T12:17:27.733Z,19.30
2023-03-16T12:18:44.905Z,19.30
2023-03-16T12:19:53.622Z,19.30
2023-03-16T12:21:01.648Z,19.20
2023-03-16T12:22:15.219Z,19.30
2023-03-16T12:23:34.566Z,19.30
2023-03-16T12:24:42.694Z,19.30
2023-03-16T12:25:49.162Z,19.30
2023-03-16T12:26:53.418Z,19.30
2023-03-16T12:27:58.877Z,19.40
2023-03-16T12:29:08.734Z,19.30
2023-03-16T12:30:27.523Z,19.40
2023-03-16T12:31:59.113Z,19.30
2023-03-16T12:33:35.032Z,19.30
2023-03-16T12:34:54.734Z,19.30
2023-03-16T12:36:21.160Z,19.30
2023-03-16T12:37:38.552Z,19.40
2023-03-16T12:38:49.654Z,19.50
2023-03-16T12:39:55.399Z,19.60
2023-03-16T12:41:04.107Z,19.60
2023-03-16T12:42:43.840Z,19.60
2023-03-16T12:44:12.479Z,19.70
2023-03-16T12:45:18.006Z,19.70
2023-03-16T12:46:49.316Z,19.70
2023-03-16T12:47:58.733Z,19.80
2023-03-16T12:49:04.769Z,19.80
2023-03-16T12:50:12.983Z,19.90
2023-03-16T12:51:15.862Z,19.90
2023-03-16T12:52:18.940Z,19.90
2023-03-16T12:53:42.922Z,19.90
2023-03-16T12:54:54.938Z,19.90
2023-03-16T12:55:57.926Z,19.90
2023-03-16T12:57:05.803Z,19.90
2023-03-16T12:58:09.143Z,19.90
2023-03-16T12:59:18.454Z,19.90
2023-03-16T13:00:21.529Z,19.90
2023-03-16T13:01:30.338Z,19.90
2023-03-16T13:02:35.859Z,19.90
2023-03-16T13:03:39.320Z,20.00
2023-03-16T13:04:44.676Z,20.00
2023-03-16T13:05:53.727Z,20.00
2023-03-16T13:07:09.950Z,20.00
2023-03-16T13:08:18.056Z,20.00
2023-03-16T13:09:25.217Z,20.00
2023-03-16T13:10:28.708Z,20.00
2023-03-16T13:11:43.750Z,20.00
2023-03-16T13:12:47.964Z,20.00
2023-03-16T13:14:02.772Z,20.00
2023-03-16T13:15:21.304Z,20.00
2023-03-16T13:16:29.654Z,20.00
2023-03-16T13:17:33.668Z,20.00
2023-03-16T13:18:41.746Z,20.10
2023-03-16T13:19:47.791Z,20.10
2023-03-16T13:21:21.581Z,20.10
2023-03-16T13:22:32.243Z,20.10
2023-03-16T13:23:54.062Z,20.10
2023-03-16T13:25:18.230Z,20.10
2023-03-16T13:26:40.513Z,20.10
2023-03-16T13:27:47.342Z,20.10
2023-03-16T13:28:55.003Z,20.10
2023-03-16T13:30:02.132Z,20.10
2023-03-16T13:31:20.928Z,20.00
2023-03-16T13:32:27.256Z,20.10
2023-03-16T13:33:36.976Z,20.10
2023-03-16T13:34:49.912Z,20.10
2023-03-16T13:35:54.718Z,20.10
2023-03-16T13:36:59.125Z,20.10
2023-03-16T13:38:06.638Z,20.10
2023-03-16T13:39:20.193Z,20.10
2023-03-16T13:40:23.170Z,20.10
2023-03-16T13:41:25.707Z,20.10
2023-03-16T13:42:33.209Z,20.10
2023-03-16T13:43:39.597Z,20.20
2023-03-16T13:44:42.780Z,20.20
2023-03-16T13:45:45.232Z,20.10
2023-03-16T13:46:50.786Z,20.10
2023-03-16T13:47:53.465Z,20.10
2023-03-16T13:49:00.794Z,20.10
2023-03-16T13:50:03.408Z,20.20
2023-03-16T13:51:15.868Z,20.20
2023-03-16T13:52:30.739Z,20.20
2023-03-16T13:53:33.319Z,20.20
2023-03-16T13:54:37.272Z,20.20
2023-03-16T13:55:40.411Z,20.20
2023-03-16T13:56:43.302Z,20.20
2023-03-16T13:57:46.498Z,20.10
2023-03-16T13:58:51.752Z,20.10
2023-03-16T14:00:18.088Z,20.10
2023-03-16T14:01:29.179Z,20.10
2023-03-16T14:02:36.164Z,20.20
2023-03-16T14:03:42.692Z,20.20
2023-03-16T14:04:45.337Z,20.20
2023-03-16T14:05:48.426Z,20.20
2023-03-16T14:06:58.527Z,20.20
2023-03-16T14:08:02.169Z,20.30
2023-03-16T14:09:08.056Z,20.30
2023-03-16T14:10:14.577Z,20.30
2023-03-16T14:11:17.128Z,20.30
2023-03-16T14:12:20.077Z,20.30
2023-03-16T14:13:32.616Z,20.30
2023-03-16T14:14:41.335Z,20.30
2023-03-16T14:15:45.294Z,20.30
2023-03-16T14:16:47.674Z,20.30
2023-03-16T14:17:50.865Z,20.30
2023-03-16T14:19:06.170Z,20.30
2023-03-16T14:20:21.995Z,20.30
2023-03-16T14:21:28.148Z,20.30
2023-03-16T14:22:37.216Z,20.30
2023-03-16T14:23:48.008Z,20.30
2023-03-16T14:25:00.606Z,20.30
2023-03-16T14:26:06.403Z,20.30
2023-03-16T14:27:40.962Z,20.30
2023-03-16T14:28:55.459Z,20.30
2023-03-16T14:30:25.833Z,20.30
2023-03-16T14:31:46.320Z,20.30
2023-03-16T14:33:24.935Z,20.30
2023-03-16T14:34:30.635Z,20.30